createdAt,value
2022-10-10T00:02:57.965Z,7.50
2022-10-10T00:06:59.575Z,7.37
2022-10-10T00:11:01.309Z,6.27
2022-10-10T00:15:03.880Z,5.67
2022-10-10T00:19:05.606Z,7.97
2022-10-10T00:23:08.016Z,8.00
2022-10-10T00:27:09.710Z,7.47
2022-10-10T00:31:11.368Z,7.30
2022-10-10T00:35:13.408Z,7.60
2022-10-10T00:39:15.086Z,9.17
2022-10-10T00:43:18.209Z,5.67
2022-10-10T00:47:20.277Z,7.47
2022-10-10T00:51:21.918Z,7.10
2022-10-10T00:55:23.702Z,5.97
2022-10-10T00:59:27.028Z,11.13
2022-10-10T01:03:28.748Z,6.77
2022-10-10T01:07:31.668Z,5.77
2022-10-10T01:11:52.886Z,6.10
2022-10-10T01:16:10.857Z,8.47
2022-10-10T01:20:18.848Z,10.30
2022-10-10T01:24:37.614Z,8.03
2022-10-10T01:29:05.736Z,6.00
2022-10-10T01:33:14.568Z,7.50
2022-10-10T01:37:20.686Z,7.47
2022-10-10T01:41:43.308Z,8.30
2022-10-10T01:45:50.926Z,11.77
2022-10-10T01:49:57.865Z,7.03
2022-10-10T01:54:08.747Z,6.80
2022-10-10T01:58:39.408Z,6.93
2022-10-10T02:02:41.042Z,7.33
2022-10-10T02:06:55.619Z,7.53
2022-10-10T02:11:01.840Z,5.17
2022-10-10T02:15:16.518Z,9.77
2022-10-10T02:19:21.107Z,7.20
2022-10-10T02:23:24.773Z,8.43
2022-10-10T02:27:30.339Z,9.40
2022-10-10T02:31:47.397Z,4.87
2022-10-10T02:35:51.792Z,9.07
2022-10-10T02:40:01.001Z,9.17
2022-10-10T02:44:03.134Z,7.57
2022-10-10T02:48:05.030Z,6.63
2022-10-10T02:52:07.441Z,5.53
2022-10-10T02:56:09.122Z,6.57
2022-10-10T03:00:11.551Z,8.53
2022-10-10T03:04:14.178Z,14.20
2022-10-10T03:08:15.804Z,7.17
2022-10-10T03:12:18.002Z,6.43
2022-10-10T03:16:19.620Z,6.63
2022-10-10T03:20:22.015Z,7.33
2022-10-10T03:24:23.654Z,8.50
2022-10-10T03:28:25.339Z,8.97
2022-10-10T03:32:27.058Z,8.60
2022-10-10T03:36:29.519Z,8.53
2022-10-10T03:40:31.222Z,6.07
2022-10-10T03:44:32.932Z,5.80
2022-10-10T03:48:35.696Z,6.83
2022-10-10T03:52:37.565Z,5.17
2022-10-10T03:56:39.244Z,9.50
2022-10-10T04:00:41.052Z,6.43
2022-10-10T04:04:42.713Z,7.40
2022-10-10T04:08:44.365Z,7.03
2022-10-10T04:12:46.077Z,11.32
2022-10-10T04:16:47.718Z,8.40
2022-10-10T04:20:49.461Z,10.00
2022-10-10T04:24:51.145Z,9.00
2022-10-10T04:28:52.841Z,8.47
2022-10-10T04:32:54.499Z,9.90
2022-10-10T04:36:56.173Z,7.93
2022-10-10T04:40:57.884Z,9.73
2022-10-10T04:44:59.834Z,6.47
2022-10-10T04:49:03.120Z,8.35
2022-10-10T04:53:05.778Z,8.67
2022-10-10T04:57:07.458Z,8.07
2022-10-10T05:01:09.258Z,8.73
2022-10-10T05:05:11.203Z,14.17
2022-10-10T05:09:13.288Z,20.30
2022-10-10T05:13:16.847Z,15.53
2022-10-10T05:17:19.128Z,7.10
2022-10-10T05:21:20.816Z,6.60
2022-10-10T05:25:22.519Z,10.30
2022-10-10T05:29:24.270Z,16.10
2022-10-10T05:33:25.909Z,6.30
2022-10-10T05:37:27.557Z,6.00
2022-10-10T05:41:29.253Z,7.10
2022-10-10T05:45:31.617Z,7.53
2022-10-10T05:49:33.258Z,8.37
2022-10-10T05:53:34.962Z,10.20
2022-10-10T05:57:36.694Z,13.00
2022-10-10T06:01:38.387Z,8.07
2022-10-10T06:05:41.201Z,9.20
2022-10-10T06:09:42.838Z,13.40
2022-10-10T06:13:45.197Z,10.67
2022-10-10T06:17:46.978Z,9.17
2022-10-10T06:21:49.705Z,9.23
2022-10-10T06:25:53.009Z,8.97
2022-10-10T06:29:54.648Z,10.80
2022-10-10T06:33:56.335Z,11.83
2022-10-10T06:37:58.018Z,13.63
2022-10-10T06:41:59.757Z,11.40
2022-10-10T06:46:02.412Z,11.30
2022-10-10T06:50:04.357Z,11.27
2022-10-10T06:54:06.183Z,11.43
2022-10-10T06:58:07.901Z,14.10
2022-10-10T07:02:13.581Z,8.90
2022-10-10T07:06:16.562Z,15.00
2022-10-10T07:10:18.245Z,13.10
2022-10-10T07:14:19.927Z,17.40
2022-10-10T07:18:21.965Z,30.40
2022-10-10T07:22:24.297Z,22.00
2022-10-10T07:26:28.180Z,21.73
2022-10-10T07:30:29.833Z,17.53
2022-10-10T07:34:31.647Z,19.70
2022-10-10T07:38:34.058Z,16.97
2022-10-10T07:42:35.731Z,14.30
2022-10-10T07:46:37.426Z,15.40
2022-10-10T07:50:43.344Z,12.67
2022-10-10T07:54:45.029Z,21.13
2022-10-10T07:58:46.759Z,17.42
2022-10-10T08:02:48.401Z,20.10
2022-10-10T08:06:50.094Z,16.80
2022-10-10T08:10:51.843Z,11.55
2022-10-10T08:14:53.714Z,20.98
2022-10-10T08:18:55.394Z,16.60
2022-10-10T08:22:57.082Z,14.25
2022-10-10T08:26:58.902Z,22.02
2022-10-10T08:31:06.119Z,15.40
2022-10-10T08:35:08.271Z,15.50
2022-10-10T08:39:11.040Z,24.20
2022-10-10T08:43:23.274Z,17.73
2022-10-10T08:47:34.106Z,20.03
2022-10-10T08:51:35.958Z,19.70
2022-10-10T08:55:43.890Z,23.85
2022-10-10T08:59:45.887Z,15.13
2022-10-10T09:03:53.355Z,17.55
2022-10-10T09:08:03.103Z,15.15
2022-10-10T09:12:17.311Z,17.08
2022-10-10T09:16:48.284Z,17.85
2022-10-10T09:21:01.381Z,16.55
2022-10-10T09:25:12.461Z,13.52
2022-10-10T09:29:23.183Z,14.38
2022-10-10T09:33:41.681Z,14.23
2022-10-10T09:37:47.755Z,18.58
2022-10-10T09:42:03.941Z,16.38
2022-10-10T09:46:06.314Z,15.95
2022-10-10T09:50:11.977Z,16.65
2022-10-10T09:54:16.535Z,15.35
2022-10-10T09:58:36.259Z,14.38
2022-10-10T10:02:37.885Z,15.77
2022-10-10T10:06:44.543Z,13.38
2022-10-10T10:10:46.212Z,13.75
2022-10-10T10:14:48.429Z,15.90
2022-10-10T10:18:50.090Z,15.63
2022-10-10T10:26:54.574Z,19.38
2022-10-10T10:30:58.942Z,16.08
2022-10-10T10:35:12.366Z,14.65
2022-10-10T10:39:14.017Z,15.32
2022-10-10T10:43:24.573Z,15.65
2022-10-10T10:48:06.658Z,16.50
2022-10-10T10:52:21.543Z,14.88
2022-10-10T10:57:02.072Z,15.13
2022-10-10T11:01:45.039Z,13.35
2022-10-10T11:06:23.529Z,17.38
2022-10-10T11:11:00.348Z,16.38
2022-10-10T11:15:14.920Z,13.85
2022-10-10T11:19:19.462Z,16.10
2022-10-10T11:23:29.724Z,19.90
2022-10-10T11:27:52.874Z,17.75
2022-10-10T11:32:00.714Z,16.25
2022-10-10T11:36:24.627Z,17.80
2022-10-10T11:40:35.088Z,19.00
2022-10-10T11:44:41.950Z,16.30
2022-10-10T11:48:53.197Z,11.90
2022-10-10T11:53:22.617Z,15.32
2022-10-10T11:57:53.316Z,11.88
2022-10-10T12:06:15.004Z,16.38
2022-10-10T12:10:27.870Z,14.63
2022-10-10T12:14:31.541Z,17.05
2022-10-10T12:18:45.429Z,15.05
2022-10-10T12:23:18.228Z,14.73
2022-10-10T12:27:41.095Z,10.95
2022-10-10T12:31:42.745Z,14.25
2022-10-10T12:35:44.470Z,9.30
2022-10-10T12:40:01.406Z,12.57
2022-10-10T12:44:19.844Z,17.05
2022-10-10T12:48:22.558Z,11.95
2022-10-10T12:52:31.669Z,10.35
2022-10-10T12:56:43.972Z,17.25
2022-10-10T13:00:47.764Z,16.65
2022-10-10T13:04:53.278Z,15.05
2022-10-10T13:08:55.763Z,11.73
2022-10-10T13:13:20.280Z,11.25
2022-10-10T13:17:36.897Z,11.02
2022-10-10T13:21:38.584Z,14.82
2022-10-10T13:25:41.091Z,11.57
2022-10-10T13:29:43.181Z,11.48
2022-10-10T13:34:45.059Z,11.57
2022-10-10T13:38:50.966Z,11.93
2022-10-10T13:42:53.742Z,13.90
2022-10-10T13:46:55.462Z,9.90
2022-10-10T13:50:57.230Z,14.40
2022-10-10T13:55:15.948Z,15.15
2022-10-10T13:59:18.713Z,14.75
2022-10-10T14:03:22.202Z,18.27
2022-10-10T14:07:28.457Z,15.85
2022-10-10T14:12:27.839Z,11.20
2022-10-10T14:16:29.596Z,10.18
2022-10-10T14:20:31.285Z,12.10
2022-10-10T14:24:32.993Z,8.75
2022-10-10T14:28:38.558Z,12.43
2022-10-10T14:32:40.579Z,12.15
2022-10-10T14:36:51.153Z,10.57
2022-10-10T14:40:54.549Z,13.90
2022-10-10T14:44:56.216Z,12.88
2022-10-10T14:48:57.843Z,16.35
2022-10-10T14:52:59.806Z,10.30
2022-10-10T14:57:09.109Z,15.00
2022-10-10T15:01:11.821Z,11.00
2022-10-10T15:05:14.362Z,11.20
2022-10-10T15:09:39.589Z,13.75
2022-10-10T15:13:39.253Z,11.43
2022-10-10T15:17:41.384Z,11.40
2022-10-10T15:21:43.064Z,9.23
2022-10-10T15:25:44.853Z,13.00
2022-10-10T15:29:46.589Z,16.42
2022-10-10T15:33:48.289Z,13.48
2022-10-10T15:37:58.301Z,10.13
2022-10-10T15:42:09.353Z,11.50
2022-10-10T15:46:15.151Z,13.82
2022-10-10T15:50:16.917Z,11.52
2022-10-10T15:54:18.618Z,11.63
2022-10-10T15:58:20.434Z,9.35
2022-10-10T16:02:22.293Z,12.68
2022-10-10T16:06:29.409Z,10.43
2022-10-10T16:10:31.391Z,17.98
2022-10-10T16:14:33.337Z,14.45
2022-10-10T16:18:40.322Z,13.80
2022-10-10T16:22:42.232Z,14.80
2022-10-10T16:26:46.580Z,15.88
2022-10-10T16:30:48.738Z,15.77
2022-10-10T16:34:50.395Z,13.90
2022-10-10T16:38:53.913Z,11.75
2022-10-10T16:42:55.570Z,12.90
2022-10-10T16:46:57.316Z,11.68
2022-10-10T16:51:16.366Z,10.52
2022-10-10T16:55:18.117Z,11.65
2022-10-10T16:59:21.999Z,11.02
2022-10-10T17:03:25.119Z,10.75
2022-10-10T17:07:27.435Z,14.20
2022-10-10T17:11:29.255Z,12.40
2022-10-10T17:15:31.163Z,19.55
2022-10-10T17:19:33.328Z,14.68
2022-10-10T17:23:35.026Z,12.10
2022-10-10T17:27:40.198Z,12.35
2022-10-10T17:31:41.919Z,8.75
2022-10-10T17:35:45.741Z,11.93
2022-10-10T17:39:47.677Z,13.85
2022-10-10T17:43:49.392Z,16.50
2022-10-10T17:47:51.073Z,12.25
2022-10-10T17:51:52.785Z,15.73
2022-10-10T17:55:54.463Z,16.05
2022-10-10T17:59:56.170Z,19.50
2022-10-10T18:03:58.489Z,17.90
2022-10-10T18:08:00.207Z,13.40
2022-10-10T18:12:02.149Z,13.20
2022-10-10T18:16:12.480Z,14.13
2022-10-10T18:20:14.233Z,17.33
2022-10-10T18:24:17.925Z,14.52
2022-10-10T18:28:19.693Z,17.35
2022-10-10T18:32:21.374Z,13.20
2022-10-10T18:36:26.581Z,20.20
2022-10-10T18:40:28.252Z,19.38
2022-10-10T18:44:30.548Z,20.98
2022-10-10T18:48:32.813Z,22.00
2022-10-10T18:52:35.116Z,17.48
2022-10-10T18:56:41.608Z,14.63
2022-10-10T19:00:43.304Z,18.38
2022-10-10T19:04:48.219Z,11.53
2022-10-10T19:08:53.645Z,10.85
2022-10-10T19:12:55.280Z,12.10
2022-10-10T19:16:56.997Z,10.68
2022-10-10T19:21:00.198Z,12.85
2022-10-10T19:25:02.948Z,7.93
2022-10-10T19:29:07.430Z,9.37
2022-10-10T19:33:10.050Z,10.48
2022-10-10T19:37:11.780Z,13.52
2022-10-10T19:41:14.526Z,10.18
2022-10-10T19:45:16.229Z,13.07
2022-10-10T19:49:17.874Z,13.67
2022-10-10T19:53:19.627Z,9.27
2022-10-10T19:57:21.294Z,5.10
2022-10-10T20:01:29.019Z,4.07
2022-10-10T20:05:31.596Z,4.50
2022-10-10T20:09:33.516Z,6.77
2022-10-10T20:13:35.654Z,6.73
2022-10-10T20:17:37.594Z,9.93
2022-10-10T20:21:39.326Z,10.67
2022-10-10T20:25:43.816Z,10.77
2022-10-10T20:29:45.687Z,13.77
2022-10-10T20:33:49.309Z,13.73
2022-10-10T20:37:50.987Z,16.07
2022-10-10T20:41:52.754Z,13.40
2022-10-10T20:45:54.421Z,10.00
2022-10-10T20:49:56.069Z,14.27
2022-10-10T20:54:00.790Z,15.00
2022-10-10T20:58:02.450Z,15.63
2022-10-10T21:02:04.208Z,12.87
2022-10-10T21:06:09.034Z,13.55
2022-10-10T21:10:10.861Z,16.10
2022-10-10T21:14:12.543Z,14.43
2022-10-10T21:18:14.191Z,13.43
2022-10-10T21:22:15.826Z,14.10
2022-10-10T21:26:20.990Z,18.38
2022-10-10T21:30:24.653Z,18.90
2022-10-10T21:34:26.311Z,17.40
2022-10-10T21:38:27.972Z,14.65
2022-10-10T21:42:29.694Z,13.87
2022-10-10T21:46:36.449Z,17.00
2022-10-10T21:50:39.306Z,15.37
2022-10-10T21:54:40.982Z,13.83
2022-10-10T21:58:45.126Z,10.03
2022-10-10T22:02:47.410Z,8.40
2022-10-10T22:06:49.068Z,11.27
2022-10-10T22:10:51.500Z,11.07
2022-10-10T22:14:53.326Z,9.00
2022-10-10T22:18:56.632Z,9.85
2022-10-10T22:22:58.321Z,7.00
2022-10-10T22:26:59.982Z,10.20
2022-10-10T22:31:13.780Z,7.03
2022-10-10T22:35:15.500Z,6.03
2022-10-10T22:39:17.353Z,10.40
2022-10-10T22:43:18.988Z,6.33
2022-10-10T22:47:21.350Z,8.23
2022-10-10T22:51:22.992Z,7.53
2022-10-10T22:55:24.769Z,8.03
2022-10-10T22:59:27.449Z,8.53
2022-10-10T23:03:29.085Z,8.82
2022-10-10T23:07:30.938Z,4.20
2022-10-10T23:11:33.217Z,12.93
2022-10-10T23:15:35.048Z,7.40
2022-10-10T23:19:36.713Z,11.90
2022-10-10T23:23:38.589Z,14.63
2022-10-10T23:27:40.374Z,11.75
2022-10-10T23:31:42.039Z,8.95
2022-10-10T23:35:43.835Z,14.25
2022-10-10T23:39:45.605Z,9.75
2022-10-10T23:43:47.342Z,9.50
2022-10-10T23:47:49.046Z,7.63
2022-10-10T23:51:50.691Z,9.55
2022-10-10T23:55:52.388Z,6.05
2022-10-10T23:59:54.099Z,6.87
